Impacts TAF Board
For situational awareness. Not to be used for flight planning purposes.
IDs:

KBCE - Bryce Canyon Arpt, UT, US

Issued at 2320 UTC 19 Sep 2020
Updated at 0121 UTC 20 Sep 2020
Potential Impact None Slight Moderate High
Time<<20/14Z 20/15Z 20/16Z 20/17Z 20/18Z 20/19Z 20/20Z 20/21Z 20/22Z 20/23Z 21/00Z 21/01Z 21/02Z>>
Type PRVL PRVL PRVL PRVL PRVL PRVL PRVL PRVL PRVL PRVL
VIS >6 >6 >6 >6 >6 >6 >6 >6 >6 >6
CIG -- -- -- -- -- -- -- -- -- --
Cover SKC SKC SKC SKC SKC SKC SKC SKC SKC SKC
FltCat VFR VFR VFR VFR VFR VFR VFR VFR VFR VFR
WX -- -- -- -- -- -- -- -- -- --
WDir 260 260 260 200 200 200 200 200 200 200
WSpd 8 8 8 10 10 10 10 10 10 10
WGst -- -- -- 18 18 18 18 18 18 18
Raw TAF
KBCE 192320Z 2000/2024 24018G28KT P6SM SCT100
  FM200300 26008KT P6SM SKC
  FM201700 20010G18KT P6SM SKC


METAR Board
Radar Display
Forecast Discussion
For situational awareness. Not to be used for flight planning purposes.